Time;durP1;ratioP1;P1;durP2;ratioP2;P2;SDS_P1;SDS_P2;PMS_P1;PMS_P2;Temp;Humidity;BMP_temperature;BMP_pressure;BME280_temperature;BME280_humidity;BME280_pressure;Samples;Min_cycle;Max_cycle;Signal;HPM_P1;HPM_P2
2021/11/01 00:01:00;;;;;;;11.30;6.90;;;;;;;1.53;77.40;97454.09;117044;1177;71065;-63
2021/11/01 00:03:30;;;;;;;29.90;18.50;;;;;;;1.59;76.12;97450.94;117360;1176;67484;-64
2021/11/01 00:05:59;;;;;;;15.60;10.00;;;;;;;1.65;79.17;97444.39;117162;1176;68411;-64
2021/11/01 00:08:29;;;;;;;28.60;16.70;;;;;;;1.68;78.10;97443.40;117454;1177;59513;-66
2021/11/01 00:10:58;;;;;;;17.30;10.10;;;;;;;1.69;78.04;97443.52;117440;1175;59541;-64
2021/11/01 00:13:27;;;;;;;24.90;15.90;;;;;;;1.71;78.46;97441.57;117456;1175;71498;-66
2021/11/01 00:15:56;;;;;;;22.20;15.80;;;;;;;1.71;79.35;97443.13;117356;1176;68496;-64
2021/11/01 00:18:26;;;;;;;26.60;16.50;;;;;;;1.70;78.59;97440.22;117474;1175;69251;-64
2021/11/01 00:20:55;;;;;;;24.80;15.50;;;;;;;1.69;79.19;97444.77;117515;1176;59593;-64
2021/11/01 00:23:25;;;;;;;14.10;10.80;;;;;;;1.65;78.72;97438.36;117410;1175;59507;-66
2021/11/01 00:25:54;;;;;;;21.80;14.00;;;;;;;1.62;77.65;97437.61;117262;1177;71503;-64
2021/11/01 00:28:23;;;;;;;16.50;9.10;;;;;;;1.60;77.20;97436.66;117392;1177;68367;-65
2021/11/01 00:30:56;;;;;;;23.20;14.00;;;;;;;1.57;77.77;97437.97;117436;1176;68259;-64
2021/11/01 00:33:26;;;;;;;15.60;9.80;;;;;;;1.55;77.11;97438.07;117322;1177;59519;-63
2021/11/01 00:35:56;;;;;;;;;;;;;;;1.54;75.54;97437.05;117389;1176;59497;-64
2021/11/01 00:38:25;;;;;;;13.90;8.80;;;;;;;1.57;75.02;97431.98;117426;1175;70626;-64
2021/11/01 00:40:54;;;;;;;19.40;11.60;;;;;;;1.60;76.01;97430.49;117405;1177;67656;-64
2021/11/01 00:43:23;;;;;;;21.10;12.40;;;;;;;1.62;76.38;97427.50;117335;1175;69406;-65
2021/11/01 00:45:53;;;;;;;16.90;10.20;;;;;;;1.70;76.25;97427.00;117026;1177;59494;-65
2021/11/01 00:48:23;;;;;;;18.00;11.10;;;;;;;1.80;76.97;97425.28;117260;1175;59516;-64
2021/11/01 00:50:53;;;;;;;20.10;11.90;;;;;;;1.92;77.74;97422.40;117412;1176;71568;-64
2021/11/01 00:53:29;;;;;;;;;;;;;;;1.96;78.23;97419.67;117436;1175;68369;-64
2021/11/01 00:56:00;;;;;;;23.00;14.20;;;;;;;1.94;78.98;97412.17;117411;1177;69140;-64
2021/11/01 00:58:33;;;;;;;21.20;13.40;;;;;;;1.93;78.52;97410.34;117093;1177;59542;-65
2021/11/01 01:01:03;;;;;;;22.70;13.30;;;;;;;1.89;78.77;97409.48;117202;1177;59497;-65
2021/11/01 01:03:33;;;;;;;;;;;;;;;1.84;79.06;97403.11;117426;1176;69756;-63
2021/11/01 01:06:03;;;;;;;21.50;12.60;;;;;;;1.85;78.14;97397.76;117393;1177;68389;-65
2021/11/01 01:08:34;;;;;;;20.40;13.40;;;;;;;1.85;78.94;97399.48;117177;1174;68441;-64
2021/11/01 01:11:04;;;;;;;13.00;8.80;;;;;;;1.84;78.74;97396.77;117369;1177;59528;-66
2021/11/01 01:13:36;;;;;;;13.40;8.60;;;;;;;1.84;77.96;97395.56;117391;1175;59535;-64
2021/11/01 01:18:38;;;;;;;17.20;10.90;;;;;;;1.87;77.43;97391.84;117319;1177;67546;-65
2021/11/01 01:23:58;;;;;;;17.20;10.90;;;;;;;1.87;77.90;97379.96;117038;1177;59567;-65
2021/11/01 01:26:28;;;;;;;16.20;10.30;;;;;;;1.88;77.79;97377.02;117308;1175;59465;-64
2021/11/01 01:28:58;;;;;;;21.20;11.90;;;;;;;1.91;77.95;97371.41;117319;1177;69592;-64
2021/11/01 01:31:28;;;;;;;18.50;11.50;;;;;;;1.94;78.11;97362.02;117430;1175;67645;-64
2021/11/01 01:33:59;;;;;;;16.40;10.40;;;;;;;1.95;77.67;97360.58;117422;1175;68544;-64
2021/11/01 01:36:30;;;;;;;16.10;11.50;;;;;;;1.97;77.31;97357.92;117249;1177;59527;-65
2021/11/01 01:39:00;;;;;;;19.60;12.50;;;;;;;2.00;78.13;97355.78;117229;1177;59535;-65
2021/11/01 01:41:30;;;;;;;16.60;11.10;;;;;;;2.02;78.15;97357.55;117309;1177;71422;-65
2021/11/01 01:44:02;;;;;;;20.30;11.60;;;;;;;2.03;77.61;97358.38;117385;1176;68211;-64
2021/11/01 01:46:31;;;;;;;18.90;12.20;;;;;;;2.06;78.05;97352.42;117127;1177;68297;-63
2021/11/01 01:49:01;;;;;;;11.60;6.60;;;;;;;2.08;77.25;97352.53;117194;1177;59544;-66
2021/11/01 01:51:32;;;;;;;16.20;8.90;;;;;;;2.08;75.60;97354.23;117387;1177;59570;-64
2021/11/01 01:54:03;;;;;;;14.80;8.30;;;;;;;2.11;75.47;97348.98;117442;1176;71373;-64
2021/11/01 01:56:32;;;;;;;14.80;8.70;;;;;;;2.16;75.84;97348.95;117324;1177;66682;-64
2021/11/01 01:59:05;;;;;;;14.60;9.10;;;;;;;2.21;76.02;97348.02;117349;1175;69225;-64
2021/11/01 02:01:36;;;;;;;13.30;9.40;;;;;;;2.28;76.00;97342.08;117199;1176;59539;-63
2021/11/01 02:04:06;;;;;;;15.50;9.60;;;;;;;2.29;75.62;97342.53;117332;1175;59635;-65
2021/11/01 02:07:07;;;;;;;17.00;9.90;;;;;;;2.36;75.74;97342.10;117385;1176;70602;-64
2021/11/01 02:09:44;;;;;;;16.50;11.00;;;;;;;2.38;76.63;97336.69;117493;1175;68359;-64
2021/11/01 02:12:18;;;;;;;20.20;12.50;;;;;;;2.39;76.55;97337.31;117471;1177;69223;-65
2021/11/01 02:14:55;;;;;;;19.00;12.60;;;;;;;2.39;75.76;97340.61;117377;1176;59509;-64
2021/11/01 02:17:30;;;;;;;12.10;8.20;;;;;;;2.37;75.64;97338.64;117429;1175;59526;-64
2021/11/01 02:20:08;;;;;;;19.10;12.00;;;;;;;2.36;74.77;97341.25;117070;1177;71469;-64
2021/11/01 02:23:04;;;;;;;15.20;10.20;;;;;;;2.32;74.89;97335.90;116933;1177;68386;-64
2021/11/01 02:25:40;;;;;;;16.40;9.80;;;;;;;2.30;76.40;97332.02;117094;1177;69147;-64
2021/11/01 02:28:18;;;;;;;20.70;12.00;;;;;;;2.30;75.35;97335.95;117193;1177;59574;-64
2021/11/01 02:30:52;;;;;;;9.30;5.80;;;;;;;2.27;75.62;97331.29;117042;1176;59561;-63
2021/11/01 02:33:25;;;;;;;15.00;8.80;;;;;;;2.26;74.37;97331.48;117158;1177;71642;-64
2021/11/01 02:35:55;;;;;;;13.50;9.70;;;;;;;2.26;74.39;97333.91;117020;1177;68390;-65
2021/11/01 02:38:33;;;;;;;14.00;8.60;;;;;;;2.22;74.20;97330.98;117060;1177;68234;-64
2021/11/01 02:41:17;;;;;;;16.10;10.40;;;;;;;2.18;74.21;97332.67;117182;1170;59555;-60
2021/11/01 02:43:56;;;;;;;14.80;10.30;;;;;;;2.16;73.89;97327.95;116898;1177;59522;-62
2021/11/01 02:46:27;;;;;;;15.20;10.90;;;;;;;2.15;74.13;97329.20;117190;1177;70638;-67
2021/11/01 02:48:57;;;;;;;;;;;;;;;2.13;74.98;97326.36;117001;1177;68391;-64
2021/11/01 02:51:29;;;;;;;16.40;10.90;;;;;;;2.13;73.91;97328.61;117019;1177;68474;-66
2021/11/01 02:54:02;;;;;;;12.50;8.90;;;;;;;2.10;75.49;97324.05;117162;1177;59516;-63
2021/11/01 02:56:32;;;;;;;20.30;12.00;;;;;;;2.09;74.65;97327.05;117133;1177;59474;-62
2021/11/01 02:59:03;;;;;;;15.70;9.60;;;;;;;2.05;76.59;97327.19;117073;1177;70420;-64
2021/11/01 03:01:33;;;;;;;20.90;12.50;;;;;;;2.02;75.53;97327.46;117165;1177;68208;-64
2021/11/01 03:04:03;;;;;;;;;;;;;;;1.97;76.68;97329.90;116946;1177;68493;-66
2021/11/01 03:06:33;;;;;;;16.70;11.00;;;;;;;1.91;76.26;97328.10;116957;1177;59491;-66
2021/11/01 03:09:04;;;;;;;16.00;10.40;;;;;;;1.86;75.37;97326.58;117045;1177;59460;-64
2021/11/01 03:11:33;;;;;;;17.20;11.20;;;;;;;1.80;75.17;97329.04;117132;1177;71175;-64
2021/11/01 03:14:03;;;;;;;21.30;13.20;;;;;;;1.75;76.69;97330.62;117082;1177;68696;-64
2021/11/01 03:16:34;;;;;;;21.70;12.30;;;;;;;1.67;76.99;97331.95;117042;1177;68454;-64
2021/11/01 03:19:19;;;;;;;14.20;8.30;;;;;;;1.58;76.75;97338.12;117390;1177;59520;-66
2021/11/01 03:21:50;;;;;;;14.60;11.10;;;;;;;1.51;75.53;97337.52;117337;1177;59507;-64
2021/11/01 03:24:20;;;;;;;13.00;9.60;;;;;;;1.44;75.20;97338.14;117392;1177;70565;-64
2021/11/01 03:26:53;;;;;;;16.20;10.30;;;;;;;1.36;76.03;97334.85;117314;1177;68356;-64
2021/11/01 03:29:25;;;;;;;12.90;9.10;;;;;;;1.28;75.83;97333.08;117382;1176;68480;-64
2021/11/01 03:31:57;;;;;;;21.10;12.00;;;;;;;1.22;76.61;97332.27;117460;1175;59529;-65
2021/11/01 03:34:28;;;;;;;14.60;9.20;;;;;;;1.17;76.01;97328.33;117392;1175;59541;-63
2021/11/01 03:37:08;;;;;;;8.40;4.60;;;;;;;1.14;75.56;97332.02;117268;1171;71716;-63
2021/11/01 03:39:41;;;;;;;13.80;9.20;;;;;;;1.14;75.09;97329.48;117247;1177;68374;-63
2021/11/01 03:42:14;;;;;;;12.20;7.70;;;;;;;1.11;76.50;97328.54;117279;1174;69216;-63
2021/11/01 03:44:50;;;;;;;10.50;7.40;;;;;;;1.08;75.81;97325.40;117256;1177;59549;-64
2021/11/01 03:47:21;;;;;;;10.00;6.70;;;;;;;1.05;75.14;97324.98;117093;1177;59503;-64
2021/11/01 03:50:03;;;;;;;9.50;7.40;;;;;;;1.04;75.09;97320.94;117474;1175;71131;-64
2021/11/01 03:52:35;;;;;;;14.40;10.10;;;;;;;1.01;76.94;97319.45;117256;1175;67711;-65
2021/11/01 03:55:05;;;;;;;19.40;12.30;;;;;;;1.00;76.36;97316.41;117415;1176;69464;-64
2021/11/01 03:57:34;;;;;;;18.90;11.30;;;;;;;0.97;77.04;97315.66;117175;1177;59519;-64
2021/11/01 04:00:07;;;;;;;12.90;9.40;;;;;;;0.95;77.01;97317.95;117462;1176;59529;-64
2021/11/01 04:02:37;;;;;;;12.70;7.10;;;;;;;0.92;75.83;97313.26;117405;1175;71333;-64
2021/11/01 04:05:07;;;;;;;15.90;10.00;;;;;;;0.90;75.26;97313.88;117095;1177;67896;-64
2021/11/01 04:07:37;;;;;;;12.20;7.30;;;;;;;0.86;75.51;97313.31;117375;1175;69252;-64
2021/11/01 04:10:09;;;;;;;13.10;8.80;;;;;;;0.85;74.22;97312.85;117263;1177;59487;-63
2021/11/01 04:12:40;;;;;;;14.60;9.40;;;;;;;0.84;74.74;97310.29;117331;1177;59552;-64
2021/11/01 04:22:53;;;;;;;9.80;7.90;;;;;;;0.77;76.01;97304.71;116974;1177;59523;-65
2021/11/01 04:25:24;;;;;;;14.40;9.60;;;;;;;0.73;76.20;97303.13;117287;1177;59522;-65
2021/11/01 04:27:55;;;;;;;17.00;11.10;;;;;;;0.70;76.05;97305.46;117298;1177;71182;-65
2021/11/01 04:30:26;;;;;;;12.90;9.10;;;;;;;0.67;78.83;97308.33;117396;1175;68133;-66
2021/11/01 04:33:00;;;;;;;13.10;9.10;;;;;;;0.63;77.35;97304.34;117302;1177;69250;-63
2021/11/01 04:35:37;;;;;;;13.90;9.90;;;;;;;0.59;77.34;97301.39;117004;1177;59542;-64
2021/11/01 04:38:37;;;;;;;17.00;9.80;;;;;;;0.55;77.88;97301.70;117382;1177;59484;-65
2021/11/01 04:41:27;;;;;;;14.00;9.80;;;;;;;0.50;77.40;97297.95;117420;1176;71272;-64
2021/11/01 04:55:02;;;;;;;10.30;7.10;;;;;;;0.37;76.81;97293.91;117436;1177;70523;-64
2021/11/01 04:57:31;;;;;;;9.70;6.70;;;;;;;0.35;75.65;97296.91;117244;1176;68400;-63
2021/11/01 05:00:01;;;;;;;14.10;8.10;;;;;;;0.33;74.96;97296.63;117288;1176;68474;-64
2021/11/01 05:02:30;;;;;;;16.00;10.70;;;;;;;0.33;75.61;97292.02;116875;1170;59568;-64
2021/11/01 05:05:01;;;;;;;24.60;14.90;;;;;;;0.30;76.35;97291.23;117244;1177;59506;-64
2021/11/01 05:07:30;;;;;;;41.90;22.40;;;;;;;0.27;78.55;97293.56;117293;1176;71416;-64
2021/11/01 05:10:07;;;;;;;45.20;25.80;;;;;;;0.24;79.16;97294.69;117451;1176;68511;-64
2021/11/01 05:12:39;;;;;;;26.00;13.90;;;;;;;0.21;78.69;97289.81;117404;1175;69252;-64
2021/11/01 05:20:24;;;;;;;28.30;15.50;;;;;;;0.17;78.99;97292.54;117333;1176;70680;-66
2021/11/01 05:31:00;;;;;;;16.30;10.60;;;;;;;0.22;77.52;97292.88;117397;1176;59589;-65
2021/11/01 05:35:57;;;;;;;29.40;16.80;;;;;;;0.28;76.87;97291.65;117424;1175;68396;-65
2021/11/01 05:38:27;;;;;;;28.40;17.20;;;;;;;0.31;78.21;97294.29;117409;1176;68441;-63
2021/11/01 05:40:56;;;;;;;17.60;9.20;;;;;;;0.34;78.16;97297.11;117372;1176;59481;-64
2021/11/01 05:43:25;;;;;;;35.70;20.50;;;;;;;0.38;77.03;97299.20;117119;1176;59500;-64
2021/11/01 05:45:54;;;;;;;32.40;18.70;;;;;;;0.42;77.75;97300.24;117438;1175;71551;-66
2021/11/01 05:48:23;;;;;;;17.10;10.90;;;;;;;0.48;77.59;97303.81;116981;1177;68415;-64
2021/11/01 05:50:52;;;;;;;17.80;10.00;;;;;;;0.55;76.72;97306.00;117346;1175;68776;-66
2021/11/01 05:53:24;;;;;;;21.00;13.70;;;;;;;0.63;77.14;97306.09;117383;1175;59468;-65
2021/11/01 05:56:22;;;;;;;17.80;12.30;;;;;;;0.70;77.99;97306.85;117445;1175;59535;-64
2021/11/01 06:15:12;;;;;;;33.50;21.00;;;;;;;1.04;77.11;97313.69;116947;1177;68186;-66
2021/11/01 06:17:42;;;;;;;25.20;14.80;;;;;;;1.12;77.07;97322.34;117230;1177;68238;-65
2021/11/01 06:20:12;;;;;;;24.40;15.90;;;;;;;1.23;77.32;97313.36;117168;1177;59535;-64
2021/11/01 06:22:43;;;;;;;21.70;13.90;;;;;;;1.43;77.00;97316.34;117342;1177;59586;-64
2021/11/01 06:25:15;;;;;;;28.80;18.50;;;;;;;1.65;76.73;97312.59;117327;1177;71369;-63
2021/11/01 06:27:47;;;;;;;19.00;11.20;;;;;;;1.92;76.85;97315.51;117141;1176;67703;-65
2021/11/01 06:30:27;;;;;;;25.30;15.50;;;;;;;2.42;76.17;97309.70;117281;1177;69313;-65
2021/11/01 06:43:45;;;;;;;21.70;15.20;;;;;;;5.35;64.82;97312.46;117095;1176;69435;-69
2021/11/01 08:20:34;;;;;;;18.40;15.00;;;;;;;20.25;28.21;97236.11;117364;1177;68942;-72
2021/11/01 08:28:33;;;;;;;13.80;10.10;;;;;;;21.09;26.41;97228.43;117095;1177;70596;-72
2021/11/01 08:42:43;;;;;;;9.70;8.30;;;;;;;20.70;25.70;97205.98;116860;1180;70782;-69
2021/11/01 09:07:25;;;;;;;8.10;6.10;;;;;;;21.28;24.60;97194.77;117221;1175;59436;-84
2021/11/01 09:26:26;;;;;;;8.40;6.70;;;;;;;21.70;22.98;97171.31;117267;1176;67721;-71
2021/11/01 09:29:12;;;;;;;;;;;;;;;21.89;23.17;97164.59;117398;1175;68560;-71
2021/11/01 09:43:00;;;;;;;7.40;6.20;;;;;;;22.79;22.28;97155.22;116788;1179;68506;-71
2021/11/01 09:45:31;;;;;;;7.50;6.70;;;;;;;23.30;21.50;97146.59;117120;1176;59510;-72
2021/11/01 09:48:02;;;;;;;8.30;6.90;;;;;;;23.85;21.09;97144.05;117207;1177;59481;-72
2021/11/01 09:50:32;;;;;;;10.40;7.50;;;;;;;24.20;20.48;97143.67;117344;1175;71096;-72
2021/11/01 09:53:09;;;;;;;9.80;7.60;;;;;;;24.55;20.10;97143.83;117190;1176;68410;-71
2021/11/01 09:55:49;;;;;;;8.60;7.20;;;;;;;24.36;19.52;97140.65;117218;1177;68462;-74
2021/11/01 10:01:24;;;;;;;9.70;7.10;;;;;;;22.54;21.61;97135.18;114716;1193;597094;-71
2021/11/01 10:03:55;;;;;;;6.90;5.60;;;;;;;23.30;21.62;97128.81;116660;1179;57439;-73
2021/11/01 10:06:27;;;;;;;8.00;6.40;;;;;;;23.95;20.92;97125.23;116727;1179;57353;-68
2021/11/01 10:09:00;;;;;;;8.20;6.60;;;;;;;24.41;20.08;97127.46;117005;1176;69628;-64
2021/11/01 10:11:33;;;;;;;6.80;5.60;;;;;;;23.64;20.31;97117.77;116902;1177;68671;-70
2021/11/01 10:14:06;;;;;;;7.10;5.80;;;;;;;23.55;20.64;97110.45;117209;1177;69795;-67
2021/11/01 10:19:35;;;;;;;8.90;6.10;;;;;;;23.50;20.59;97106.98;116964;1177;57414;-71
2021/11/01 10:22:22;;;;;;;9.40;7.30;;;;;;;23.07;20.93;97104.41;117241;1176;69557;-73
2021/11/01 10:24:54;;;;;;;9.70;6.60;;;;;;;23.50;20.93;97103.16;117078;1177;66740;-69
2021/11/01 10:27:32;;;;;;;9.40;6.80;;;;;;;23.92;20.18;97101.21;117156;1176;69260;-66
2021/11/01 10:30:07;;;;;;;7.60;6.00;;;;;;;24.04;19.74;97100.39;117026;1176;58307;-70
2021/11/01 10:32:46;;;;;;;8.10;6.60;;;;;;;24.37;19.51;97096.27;117122;1177;57958;-66
2021/11/01 10:35:29;;;;;;;9.40;6.50;;;;;;;23.01;20.59;97089.17;117047;1177;70467;-67
2021/11/01 10:38:26;;;;;;;8.20;6.50;;;;;;;23.02;20.32;97083.86;117104;1177;68509;-67
2021/11/01 10:41:53;;;;;;;6.80;5.60;;;;;;;22.84;20.00;97077.71;116791;1177;69434;-66
2021/11/01 11:14:33;;;;;;;6.00;5.00;;;;;;;25.76;17.75;97042.34;117094;1177;57928;-66
2021/11/01 11:17:13;;;;;;;7.40;5.30;;;;;;;26.38;16.92;97038.77;117127;1177;69314;-67
2021/11/01 11:20:01;;;;;;;7.40;6.00;;;;;;;26.94;16.81;97040.96;117186;1177;68420;-66
2021/11/01 11:22:51;;;;;;;7.20;5.80;;;;;;;27.19;16.21;97035.36;117118;1177;69298;-67
2021/11/01 11:25:47;;;;;;;7.90;5.90;;;;;;;27.07;15.82;97034.00;117167;1177;57884;-66
2021/11/01 11:28:46;;;;;;;7.00;6.00;;;;;;;27.53;15.61;97031.35;117066;1177;57911;-67
2021/11/01 11:42:39;;;;;;;8.50;6.90;;;;;;;27.04;15.40;97014.95;116813;1177;57920;-66
2021/11/01 11:50:34;;;;;;;6.70;5.20;;;;;;;28.60;13.85;97012.32;117143;1176;69932;-66
2021/11/01 11:53:26;;;;;;;9.20;6.60;;;;;;;28.42;13.67;97005.92;117117;1177;57948;-66
2021/11/01 11:56:14;;;;;;;7.40;6.30;;;;;;;27.65;14.02;97000.98;117174;1177;58304;-65
2021/11/01 11:58:49;;;;;;;11.10;8.80;;;;;;;27.32;14.44;96998.86;116993;1177;68918;-67
2021/11/01 12:01:25;;;;;;;8.60;7.10;;;;;;;26.90;14.96;96999.34;116977;1177;68908;-63
2021/11/01 12:03:56;;;;;;;11.10;7.60;;;;;;;26.94;14.68;96995.58;116897;1177;68640;-66
2021/11/01 12:06:55;;;;;;;6.90;5.40;;;;;;;27.00;14.67;96988.18;117189;1177;57926;-66
2021/11/01 12:09:31;;;;;;;;;;;;;;;27.93;13.74;96989.52;117067;1177;57993;-67
2021/11/01 12:17:03;;;;;;;8.90;7.00;;;;;;;29.57;12.93;96983.97;116935;1177;68555;-66
2021/11/01 12:17:32;;;;;;;7.10;5.50;;;;;;;29.55;12.35;96982.64;117056;1177;69320;-66
2021/11/01 12:20:07;;;;;;;5.80;4.70;;;;;;;28.47;13.14;96989.22;117160;1177;57924;-67
2021/11/01 12:22:47;;;;;;;7.90;5.20;;;;;;;28.24;13.32;96984.67;116868;1177;57942;-67
2021/11/01 12:25:20;;;;;;;7.10;5.70;;;;;;;28.30;13.12;96982.16;116967;1177;69037;-66
2021/11/01 12:28:00;;;;;;;9.10;6.40;;;;;;;27.68;13.66;96983.14;116974;1177;68354;-65
2021/11/01 12:30:37;;;;;;;7.50;6.10;;;;;;;26.69;14.20;96977.02;117070;1174;69783;-66
2021/11/01 12:33:12;;;;;;;5.50;4.50;;;;;;;27.59;13.60;96976.64;117108;1176;57988;-66
2021/11/01 12:35:46;;;;;;;6.10;4.80;;;;;;;28.03;13.23;96982.27;117117;1176;57926;-67
2021/11/01 12:38:21;;;;;;;6.80;5.20;;;;;;;28.51;12.68;96978.08;116993;1177;69749;-67
2021/11/01 12:41:09;;;;;;;6.10;5.00;;;;;;;28.79;12.66;96976.19;117075;1177;67650;-67
2021/11/01 12:44:38;;;;;;;8.30;5.50;;;;;;;27.34;13.69;96971.94;117106;1177;69320;-66
2021/11/01 12:56:59;;;;;;;6.80;5.10;;;;;;;25.60;15.30;96964.16;117043;1177;66942;-68
2021/11/01 12:57:45;;;;;;;5.90;5.20;;;;;;;25.03;15.66;96961.52;117062;1174;69221;-67
2021/11/01 13:00:15;;;;;;;7.90;6.00;;;;;;;26.72;14.50;96961.27;117077;1177;57916;-66
2021/11/01 13:02:46;;;;;;;5.70;4.80;;;;;;;27.47;13.66;96965.63;117258;1171;57868;-66
2021/11/01 13:05:25;;;;;;;6.50;4.70;;;;;;;28.09;13.18;96960.96;117313;1175;69403;-64
2021/11/01 13:08:01;;;;;;;6.30;5.60;;;;;;;26.97;13.86;96956.25;117323;1175;68348;-67
2021/11/01 13:10:43;;;;;;;8.20;6.00;;;;;;;25.98;14.62;96953.90;117234;1175;68489;-67
2021/11/01 13:19:04;;;;;;;6.00;4.70;;;;;;;27.61;13.89;96954.04;117263;1176;70444;-66
2021/11/01 13:21:40;;;;;;;6.60;5.90;;;;;;;27.84;13.51;96949.73;117214;1175;68526;-67
2021/11/01 13:24:11;;;;;;;6.40;5.40;;;;;;;26.07;14.68;96945.92;117272;1175;68765;-65
2021/11/01 13:36:08;;;;;;;7.90;5.60;;;;;;;27.47;13.82;96940.31;116592;1180;68660;-67
2021/11/01 13:38:31;;;;;;;7.40;5.80;;;;;;;27.29;14.10;96940.23;117081;1175;69212;-66
2021/11/01 13:41:14;;;;;;;5.70;4.80;;;;;;;27.10;14.17;96935.99;117252;1177;57926;-66
2021/11/01 13:43:45;;;;;;;8.20;5.60;;;;;;;26.07;14.93;96935.25;117266;1166;57993;-66
2021/11/01 13:46:15;;;;;;;5.60;4.80;;;;;;;25.89;15.21;96934.48;117258;1175;69151;-67
2021/11/01 13:48:56;;;;;;;6.70;5.80;;;;;;;25.65;15.40;96933.98;117162;1175;67666;-66
2021/11/01 13:51:30;;;;;;;7.20;5.00;;;;;;;25.71;15.33;96933.67;117180;1177;70028;-65
2021/11/01 13:59:30;;;;;;;6.20;4.90;;;;;;;25.33;15.88;96920.05;117245;1175;70008;-66
2021/11/01 14:14:09;;;;;;;7.80;4.80;;;;;;;25.40;15.94;96911.27;117177;1177;68884;-66
2021/11/01 14:30:05;;;;;;;5.70;4.20;;;;;;;25.14;16.71;96890.95;117308;1175;67584;-65
2021/11/01 14:35:47;;;;;;;6.90;5.60;;;;;;;24.81;17.22;96893.53;117264;1178;58742;-66
2021/11/01 14:58:37;;;;;;;13.70;10.50;;;;;;;19.69;22.17;96882.11;117245;1175;67814;-64
2021/11/01 15:04:48;;;;;;;20.00;13.70;;;;;;;17.67;24.74;96874.41;117305;1177;58801;-68
2021/11/01 15:15:09;;;;;;;27.70;17.70;;;;;;;14.65;29.53;96873.52;117266;1176;68598;-64
2021/11/01 15:20:30;;;;;;;43.00;27.30;;;;;;;13.38;32.88;96871.96;117294;1175;58732;-65
2021/11/01 15:36:44;;;;;;;24.00;15.50;;;;;;;11.52;37.44;96867.50;117232;1175;70483;-66
2021/11/01 16:18:06;;;;;;;19.00;12.80;;;;;;;8.84;42.56;96869.19;117102;1177;70596;-63
2021/11/01 16:20:35;;;;;;;17.10;11.60;;;;;;;8.74;43.77;96870.78;117258;1176;68494;-65
2021/11/01 16:23:26;;;;;;;14.70;9.50;;;;;;;8.68;43.58;96872.60;117232;1177;69937;-66
2021/11/01 16:25:58;;;;;;;14.40;9.80;;;;;;;8.62;44.27;96872.86;117167;1176;58761;-62
2021/11/01 16:28:30;;;;;;;14.60;10.50;;;;;;;8.55;43.95;96870.55;117236;1175;58702;-64
2021/11/01 16:33:46;;;;;;;9.60;5.90;;;;;;;8.47;41.68;96871.73;117254;1176;68397;-67
2021/11/01 16:39:41;;;;;;;15.10;10.10;;;;;;;8.59;41.68;96865.27;117170;1177;58685;-65
2021/11/01 16:42:11;;;;;;;19.70;11.80;;;;;;;8.67;42.26;96866.23;117248;1177;58726;-65
2021/11/01 16:44:43;;;;;;;13.60;9.80;;;;;;;8.66;41.77;96867.66;117258;1176;70108;-65
2021/11/01 16:47:14;;;;;;;12.00;7.60;;;;;;;8.61;42.37;96867.88;117262;1175;68371;-65
2021/11/01 16:49:43;;;;;;;;;;;;;;;8.52;41.85;96872.23;117267;1177;69198;-65
2021/11/01 16:52:15;;;;;;;21.00;12.20;;;;;;;8.37;44.27;96873.45;117295;1166;58726;-65
2021/11/01 16:54:50;;;;;;;23.20;15.50;;;;;;;8.17;45.20;96875.55;117267;1177;59187;-65
2021/11/01 16:57:41;;;;;;;20.80;13.40;;;;;;;8.05;44.09;96873.86;117324;1177;69927;-65
2021/11/01 17:05:40;;;;;;;15.10;9.60;;;;;;;7.71;44.85;96869.11;117231;1176;58735;-61
2021/11/01 18:39:40;;;;;;;27.90;18.40;;;;;;;4.51;57.40;96871.89;116377;1181;68984;-65
2021/11/01 18:42:23;;;;;;;35.90;22.70;;;;;;;4.47;57.53;96874.04;116382;1180;69364;-63
2021/11/01 18:53:16;;;;;;;37.60;25.40;;;;;;;4.22;58.59;96871.17;116858;1177;68093;-64
2021/11/01 18:55:55;;;;;;;30.20;20.20;;;;;;;4.21;57.49;96869.11;116907;1176;68499;-64
2021/11/01 18:58:27;;;;;;;25.90;18.00;;;;;;;4.23;55.48;96866.95;116935;1177;58730;-65
2021/11/01 19:00:58;;;;;;;34.70;22.20;;;;;;;4.22;56.49;96867.33;117074;1170;58739;-65
2021/11/01 19:03:32;;;;;;;38.70;26.40;;;;;;;4.21;54.87;96867.76;117142;1177;70640;-63
2021/11/01 19:06:33;;;;;;;37.10;24.80;;;;;;;4.18;55.38;96872.42;117158;1169;68888;-62
2021/11/01 19:09:15;;;;;;;37.40;22.00;;;;;;;4.10;57.04;96873.88;116985;1177;68627;-65
2021/11/01 20:06:20;;;;;;;44.40;27.80;;;;;;;2.70;63.08;96874.19;117319;1176;69595;-64
2021/11/01 20:09:59;;;;;;;27.60;17.80;;;;;;;2.68;62.58;96879.29;117247;1175;58751;-66
2021/11/01 20:14:41;;;;;;;34.10;23.30;;;;;;;2.63;63.75;96882.98;117299;1177;70598;-63
2021/11/01 21:25:15;;;;;;;37.00;25.40;;;;;;;2.31;65.72;96822.07;117298;1177;69804;-64
2021/11/01 21:27:44;;;;;;;38.20;21.60;;;;;;;2.29;66.01;96825.30;117280;1177;69195;-61
2021/11/01 21:30:14;;;;;;;34.90;20.10;;;;;;;2.28;66.50;96823.95;116871;1177;67857;-62
2021/11/01 21:32:45;;;;;;;30.10;18.10;;;;;;;2.27;66.33;96822.65;117166;1177;58737;-65
2021/11/01 21:35:16;;;;;;;30.60;18.00;;;;;;;2.24;66.43;96824.16;116842;1177;58738;-64
2021/11/01 21:37:46;;;;;;;42.50;23.60;;;;;;;2.19;65.40;96824.41;117301;1175;71010;-65
2021/11/01 21:40:15;;;;;;;36.70;22.30;;;;;;;2.14;65.27;96822.41;117338;1176;67027;-64
2021/11/01 21:42:45;;;;;;;29.50;17.90;;;;;;;2.06;67.45;96824.69;117287;1177;69292;-65
2021/11/01 21:45:32;;;;;;;48.40;27.10;;;;;;;1.96;69.22;96821.37;117218;1177;58779;-63
2021/11/01 21:48:02;;;;;;;47.90;28.80;;;;;;;1.87;69.70;96816.98;117324;1176;58741;-66
2021/11/01 21:50:31;;;;;;;46.70;27.10;;;;;;;1.80;69.74;96812.67;117284;1175;69591;-65
2021/11/01 21:53:05;;;;;;;30.10;18.90;;;;;;;1.76;69.15;96809.61;117295;1176;67657;-64
2021/11/01 21:55:36;;;;;;;35.40;20.00;;;;;;;1.73;68.53;96812.50;117298;1176;68645;-63
2021/11/01 21:58:12;;;;;;;;;;;;;;;1.69;68.26;96805.31;117263;1176;58720;-61
2021/11/01 22:17:40;;;;;;;44.90;28.20;;;;;;;1.46;72.01;96810.82;117217;1176;71014;-65
2021/11/01 22:20:15;;;;;;;32.00;21.50;;;;;;;1.40;70.31;96805.64;117118;1177;67678;-64
2021/11/01 22:22:52;;;;;;;26.80;16.50;;;;;;;1.36;68.87;96801.02;117287;1177;69239;-67
2021/11/01 22:25:27;;;;;;;19.90;13.50;;;;;;;1.31;69.04;96798.33;117282;1177;58758;-63
2021/11/01 22:39:26;;;;;;;27.50;17.10;;;;;;;1.16;66.61;96788.02;117199;1176;58745;-64
2021/11/01 22:47:21;;;;;;;27.80;17.30;;;;;;;1.01;70.49;96775.79;117264;1177;67803;-64
2021/11/01 22:58:12;;;;;;;44.30;28.00;;;;;;;0.85;69.36;96772.05;117142;1177;70740;-67
2021/11/01 23:00:52;;;;;;;48.60;29.60;;;;;;;0.69;72.62;96777.06;117208;1177;67327;-64
2021/11/01 23:03:35;;;;;;;34.10;19.30;;;;;;;0.51;73.04;96775.58;117301;1177;68570;-65
2021/11/01 23:06:17;;;;;;;39.70;22.60;;;;;;;0.44;71.80;96776.23;117252;1175;58678;-67
2021/11/01 23:31:36;;;;;;;19.20;11.10;;;;;;;0.45;72.39;96737.25;117187;1177;68364;-64
2021/11/01 23:34:09;;;;;;;25.00;14.70;;;;;;;0.50;72.36;96729.17;117316;1175;58698;-64
2021/11/01 23:36:41;;;;;;;34.70;20.90;;;;;;;0.50;73.76;96723.70;117360;1175;58735;-64
2021/11/01 23:39:13;;;;;;;23.90;14.30;;;;;;;0.45;74.71;96726.79;117268;1175;70552;-64
2021/11/01 23:41:47;;;;;;;36.10;19.80;;;;;;;0.41;74.88;96725.13;117167;1177;67695;-63
2021/11/01 23:44:19;;;;;;;29.80;16.70;;;;;;;0.39;75.91;96722.27;117223;1171;69367;-64
2021/11/01 23:46:49;;;;;;;25.80;14.10;;;;;;;0.46;75.19;96715.44;117306;1176;58716;-66
2021/11/01 23:49:21;;;;;;;28.80;16.40;;;;;;;0.51;75.70;96713.20;117353;1174;58809;-66
2021/11/01 23:52:02;;;;;;;26.00;15.10;;;;;;;0.52;75.81;96715.36;117318;1177;68916;-66
2021/11/01 23:54:44;;;;;;;41.70;21.60;;;;;;;0.49;76.69;96716.89;117198;1176;68125;-65
2021/11/01 23:57:16;;;;;;;38.30;21.30;;;;;;;0.41;77.73;96711.55;117170;1177;68436;-63
2021/11/01 23:59:48;;;;;;;39.10;22.00;;;;;;;0.32;79.28;96706.64;116930;1177;58786;-64
